createdAt,value
2019-03-01T00:01:27.276Z,2.90
2019-03-01T00:04:00.968Z,2.53
2019-03-01T00:06:37.860Z,3.17
2019-03-01T00:09:42.884Z,2.80
2019-03-01T00:12:53.845Z,2.90
2019-03-01T00:16:18.948Z,3.43
2019-03-01T00:19:11.843Z,3.40
2019-03-01T00:22:14.814Z,3.30
2019-03-01T00:25:10.404Z,3.50
2019-03-01T00:28:13.416Z,3.37
2019-03-01T00:31:30.433Z,3.00
2019-03-01T00:34:18.292Z,3.50
2019-03-01T00:37:37.321Z,3.50
2019-03-01T00:40:27.705Z,5.50
2019-03-01T00:43:39.592Z,3.90
2019-03-01T00:46:08.577Z,3.17
2019-03-01T00:48:37.444Z,3.23
2019-03-01T00:51:06.446Z,4.00
2019-03-01T00:53:35.245Z,3.10
2019-03-01T00:56:04.177Z,3.23
2019-03-01T00:58:33.164Z,3.00
2019-03-01T01:01:02.200Z,3.40
2019-03-01T01:03:31.080Z,2.93
2019-03-01T01:05:59.884Z,3.27
2019-03-01T01:08:28.760Z,3.73
2019-03-01T01:10:57.632Z,3.40
2019-03-01T01:13:26.576Z,2.83
2019-03-01T01:15:55.572Z,3.30
2019-03-01T01:18:24.398Z,3.53
2019-03-01T01:20:53.657Z,3.13
2019-03-01T01:23:22.585Z,2.90
2019-03-01T01:25:51.434Z,3.00
2019-03-01T01:28:20.406Z,2.90
2019-03-01T01:30:49.404Z,3.20
2019-03-01T01:33:18.376Z,3.57
2019-03-01T01:35:47.306Z,4.17
2019-03-01T01:38:16.304Z,3.57
2019-03-01T01:40:45.401Z,3.40
2019-03-01T01:43:14.468Z,3.67
2019-03-01T01:45:43.504Z,3.60
2019-03-01T01:48:12.356Z,3.70
2019-03-01T01:50:41.447Z,3.90
2019-03-01T01:53:10.625Z,3.50
2019-03-01T01:55:39.600Z,3.30
2019-03-01T01:58:08.369Z,4.03
2019-03-01T02:00:37.344Z,3.30
2019-03-01T02:03:06.287Z,3.23
2019-03-01T02:05:35.217Z,3.17
2019-03-01T02:08:04.762Z,3.40
2019-03-01T02:10:33.629Z,4.27
2019-03-01T02:13:02.514Z,3.50
2019-03-01T02:15:31.520Z,3.33
2019-03-01T02:18:00.284Z,3.43
2019-03-01T02:20:29.165Z,3.10
2019-03-01T02:22:58.065Z,3.30
2019-03-01T02:25:26.944Z,3.87
2019-03-01T02:27:55.904Z,3.97
2019-03-01T02:30:26.297Z,4.17
2019-03-01T02:32:55.112Z,4.77
2019-03-01T02:35:25.625Z,4.37
2019-03-01T02:37:54.647Z,4.93
2019-03-01T02:40:23.525Z,4.07
2019-03-01T02:42:52.564Z,4.33
2019-03-01T02:45:22.542Z,5.70
2019-03-01T02:47:51.453Z,5.30
2019-03-01T02:50:20.938Z,4.57
2019-03-01T02:52:49.854Z,4.70
2019-03-01T02:55:19.718Z,4.17
2019-03-01T02:57:48.595Z,5.50
2019-03-01T03:00:22.535Z,4.87
2019-03-01T03:02:51.535Z,5.80
2019-03-01T03:05:20.517Z,4.60
2019-03-01T03:08:08.961Z,5.53
2019-03-01T03:10:37.949Z,4.70
2019-03-01T03:13:08.981Z,4.60
2019-03-01T03:15:40.508Z,4.57
2019-03-01T03:18:09.361Z,4.07
2019-03-01T03:20:38.187Z,3.47
2019-03-01T03:23:06.980Z,3.90
2019-03-01T03:25:35.990Z,2.90
2019-03-01T03:28:04.920Z,2.97
2019-03-01T03:30:34.026Z,3.37
2019-03-01T03:33:03.014Z,3.00
2019-03-01T03:35:31.803Z,2.53
2019-03-01T03:38:00.701Z,2.87
2019-03-01T03:40:30.107Z,3.50
2019-03-01T03:42:59.063Z,2.23
2019-03-01T03:45:28.089Z,2.83
2019-03-01T03:47:57.307Z,2.57
2019-03-01T03:50:26.192Z,2.50
2019-03-01T03:52:55.072Z,3.33
2019-03-01T03:55:24.037Z,3.03
2019-03-01T03:57:53.062Z,2.60
2019-03-01T04:00:22.104Z,2.27
2019-03-01T04:02:51.321Z,3.10
2019-03-01T04:05:20.216Z,2.30
2019-03-01T04:07:49.282Z,2.63
2019-03-01T04:10:18.166Z,2.60
2019-03-01T04:12:47.158Z,3.20
2019-03-01T04:15:16.243Z,3.50
2019-03-01T04:17:45.349Z,2.90
2019-03-01T04:20:15.909Z,7.00
2019-03-01T04:22:44.867Z,4.17
2019-03-01T04:25:13.824Z,2.40
2019-03-01T04:27:42.782Z,2.40
2019-03-01T04:30:14.004Z,2.63
2019-03-01T04:32:42.936Z,3.93
2019-03-01T04:35:11.970Z,3.20
2019-03-01T04:37:41.289Z,4.20
2019-03-01T04:40:11.505Z,3.57
2019-03-01T04:42:40.549Z,3.87
2019-03-01T04:45:10.724Z,3.10
2019-03-01T04:47:39.677Z,2.90
2019-03-01T04:50:09.257Z,3.50
2019-03-01T04:52:38.902Z,3.00
2019-03-01T04:55:10.644Z,3.07
2019-03-01T04:57:39.732Z,3.13
2019-03-01T05:00:12.072Z,3.30
2019-03-01T05:02:40.967Z,2.90
2019-03-01T05:05:09.929Z,3.00
2019-03-01T05:07:38.716Z,2.83
2019-03-01T05:10:08.292Z,2.93
2019-03-01T05:12:37.203Z,2.90
2019-03-01T05:15:06.766Z,2.80
2019-03-01T05:17:35.564Z,3.27
2019-03-01T05:20:05.052Z,3.60
2019-03-01T05:22:33.868Z,3.27
2019-03-01T05:25:03.082Z,3.03
2019-03-01T05:27:32.041Z,3.33
2019-03-01T05:30:00.837Z,2.90
2019-03-01T05:32:29.876Z,3.60
2019-03-01T05:34:58.764Z,3.47
2019-03-01T05:37:27.770Z,3.10
2019-03-01T05:39:56.648Z,2.80
2019-03-01T05:42:25.540Z,3.90
2019-03-01T05:44:54.412Z,3.50
2019-03-01T05:47:23.221Z,3.50
2019-03-01T05:49:52.221Z,4.50
2019-03-01T05:52:21.113Z,3.40
2019-03-01T05:54:49.983Z,3.13
2019-03-01T05:57:18.994Z,3.13
2019-03-01T05:59:47.878Z,3.20
2019-03-01T06:02:47.350Z,3.00
2019-03-01T06:05:37.059Z,3.30
2019-03-01T06:08:30.344Z,3.07
2019-03-01T06:11:42.308Z,2.70
2019-03-01T06:14:37.501Z,2.43
2019-03-01T06:17:22.688Z,3.70
2019-03-01T06:20:00.488Z,2.50
2019-03-01T06:23:13.120Z,3.10
2019-03-01T06:26:23.209Z,2.23
2019-03-01T06:29:09.516Z,2.40
2019-03-01T06:32:18.316Z,2.53
2019-03-01T06:35:01.680Z,2.87
2019-03-01T06:38:37.304Z,2.87
2019-03-01T06:41:40.421Z,2.80
2019-03-01T06:44:36.100Z,2.20
2019-03-01T06:47:40.980Z,2.33
2019-03-01T06:50:35.465Z,2.50
2019-03-01T06:53:04.516Z,1.97
2019-03-01T06:55:54.554Z,2.37
2019-03-01T06:58:25.726Z,2.23
2019-03-01T07:00:59.163Z,1.90
2019-03-01T07:03:27.985Z,1.77
2019-03-01T07:06:03.394Z,1.73
2019-03-01T07:08:27.641Z,2.53
2019-03-01T07:10:56.512Z,1.73
2019-03-01T07:13:25.454Z,1.80
2019-03-01T07:15:54.448Z,2.30
2019-03-01T07:18:23.413Z,1.60
2019-03-01T07:20:52.326Z,1.80
2019-03-01T07:23:21.152Z,1.87
2019-03-01T07:25:50.105Z,1.63
2019-03-01T07:28:19.029Z,1.50
2019-03-01T07:30:48.012Z,2.00
2019-03-01T07:33:16.953Z,2.00
2019-03-01T07:35:46.410Z,2.00
2019-03-01T07:38:15.437Z,1.97
2019-03-01T07:40:44.252Z,1.70
2019-03-01T07:43:13.072Z,1.63
2019-03-01T07:45:42.047Z,1.70
2019-03-01T07:48:11.021Z,2.03
2019-03-01T07:50:39.850Z,2.17
2019-03-01T07:53:08.760Z,3.83
2019-03-01T07:55:37.661Z,2.50
2019-03-01T07:58:06.559Z,2.37
2019-03-01T08:00:35.532Z,2.93
2019-03-01T08:03:04.724Z,2.20
2019-03-01T08:05:35.600Z,2.53
2019-03-01T08:08:04.188Z,3.20
2019-03-01T08:10:33.089Z,2.57
2019-03-01T08:13:01.962Z,2.50
2019-03-01T08:15:31.129Z,2.63
2019-03-01T08:18:00.562Z,2.90
2019-03-01T08:20:30.416Z,2.70
2019-03-01T08:23:00.840Z,2.30
2019-03-01T08:25:31.056Z,2.57
2019-03-01T08:28:00.021Z,2.80
2019-03-01T08:30:28.924Z,2.00
2019-03-01T08:32:57.720Z,2.47
2019-03-01T08:35:28.329Z,2.10
2019-03-01T08:37:57.140Z,2.13
2019-03-01T08:40:26.108Z,2.23
2019-03-01T08:42:54.984Z,2.13
2019-03-01T08:45:23.907Z,1.90
2019-03-01T08:47:55.481Z,2.33
2019-03-01T08:50:23.305Z,2.17
2019-03-01T08:52:52.214Z,2.00
2019-03-01T08:55:21.204Z,1.60
2019-03-01T08:57:50.121Z,1.87
2019-03-01T09:00:23.223Z,1.70
2019-03-01T09:02:53.263Z,1.50
2019-03-01T09:05:22.720Z,1.50
2019-03-01T09:07:51.581Z,1.57
2019-03-01T09:10:20.704Z,1.50
2019-03-01T09:12:49.866Z,1.60
2019-03-01T09:15:18.850Z,1.80
2019-03-01T09:17:47.835Z,1.80
2019-03-01T09:20:17.292Z,2.60
2019-03-01T09:22:46.184Z,2.10
2019-03-01T09:25:15.520Z,2.73
2019-03-01T09:27:44.516Z,2.20
2019-03-01T09:30:16.256Z,2.60
2019-03-01T09:32:45.141Z,2.00
2019-03-01T09:35:50.095Z,2.13
2019-03-01T09:38:19.484Z,1.80
2019-03-01T09:40:48.365Z,2.13
2019-03-01T09:43:17.272Z,1.70
2019-03-01T09:45:48.606Z,1.97
2019-03-01T09:48:16.872Z,1.70
2019-03-01T09:50:45.801Z,2.20
2019-03-01T09:53:14.628Z,1.83
2019-03-01T09:55:43.548Z,1.90
2019-03-01T09:58:12.450Z,1.83
2019-03-01T10:00:43.469Z,2.13
2019-03-01T10:03:12.373Z,1.87
2019-03-01T10:05:41.144Z,2.30
2019-03-01T10:08:09.940Z,1.70
2019-03-01T10:10:38.819Z,2.40
2019-03-01T10:13:07.744Z,3.10
2019-03-01T10:15:36.625Z,2.30
2019-03-01T10:18:05.597Z,2.03
2019-03-01T10:20:34.547Z,2.10
2019-03-01T10:23:03.481Z,1.90
2019-03-01T10:25:32.388Z,2.10
2019-03-01T10:28:01.262Z,1.97
2019-03-01T10:30:30.234Z,2.20
2019-03-01T10:32:59.105Z,1.53
2019-03-01T10:35:27.981Z,2.00
2019-03-01T10:37:56.861Z,1.93
2019-03-01T10:40:25.861Z,2.50
2019-03-01T10:42:55.202Z,2.67
2019-03-01T10:45:24.320Z,2.37
2019-03-01T10:47:53.496Z,2.53
2019-03-01T10:50:22.317Z,3.30
2019-03-01T10:52:51.160Z,2.73
2019-03-01T10:55:20.436Z,3.00
2019-03-01T10:57:49.312Z,2.33
2019-03-01T11:00:20.445Z,2.50
2019-03-01T11:02:49.360Z,2.83
2019-03-01T11:05:18.432Z,2.80
2019-03-01T11:07:47.900Z,2.80
2019-03-01T11:10:28.242Z,2.20
2019-03-01T11:12:57.237Z,2.37
2019-03-01T11:15:26.396Z,3.43
2019-03-01T11:17:55.668Z,2.70
2019-03-01T11:20:24.729Z,2.73
2019-03-01T11:22:53.692Z,3.33
2019-03-01T11:25:23.100Z,2.40
2019-03-01T11:27:52.036Z,2.97
2019-03-01T11:30:23.053Z,2.50
2019-03-01T11:32:51.917Z,2.23
2019-03-01T11:35:20.715Z,2.57
2019-03-01T11:37:49.732Z,2.47
2019-03-01T11:40:20.929Z,3.03
2019-03-01T11:42:49.920Z,2.30
2019-03-01T11:45:18.985Z,2.60
2019-03-01T11:47:48.089Z,2.63
2019-03-01T11:50:19.126Z,2.73
2019-03-01T11:52:48.121Z,4.10
2019-03-01T11:55:17.056Z,3.10
2019-03-01T11:57:45.908Z,3.30
2019-03-01T12:00:18.407Z,3.00
2019-03-01T12:02:48.552Z,3.20
2019-03-01T12:05:17.597Z,3.47
2019-03-01T12:07:46.540Z,3.70
2019-03-01T12:10:20.728Z,4.10
2019-03-01T12:12:49.620Z,4.23
2019-03-01T12:15:18.768Z,3.83
2019-03-01T12:17:47.656Z,4.10
2019-03-01T12:20:18.276Z,3.77
2019-03-01T12:22:47.159Z,4.97
2019-03-01T12:25:16.056Z,3.73
2019-03-01T12:27:44.929Z,3.80
2019-03-01T12:30:16.387Z,3.47
2019-03-01T12:32:45.361Z,4.10
2019-03-01T12:35:14.580Z,4.97
2019-03-01T12:37:44.016Z,3.97
2019-03-01T12:40:21.461Z,5.50
2019-03-01T12:42:50.389Z,5.17
2019-03-01T12:45:19.272Z,5.87
2019-03-01T12:47:48.374Z,6.27
2019-03-01T12:50:17.621Z,6.77
2019-03-01T12:52:46.504Z,7.53
2019-03-01T12:55:17.164Z,8.70
2019-03-01T12:57:46.020Z,7.67
2019-03-01T13:00:17.798Z,8.37
2019-03-01T13:02:46.808Z,8.47
2019-03-01T13:05:15.791Z,8.73
2019-03-01T13:07:44.769Z,9.13
2019-03-01T13:10:24.924Z,10.00
2019-03-01T13:12:54.685Z,8.90
2019-03-01T13:15:24.024Z,8.47
2019-03-01T13:17:53.125Z,10.47
2019-03-01T13:20:22.012Z,8.50
2019-03-01T13:22:50.797Z,9.10
2019-03-01T13:25:19.848Z,8.20
2019-03-01T13:27:52.144Z,9.70
2019-03-01T13:30:20.723Z,8.70
2019-03-01T13:32:49.689Z,8.03
2019-03-01T13:35:18.716Z,7.63
2019-03-01T13:37:47.704Z,8.00
2019-03-01T13:40:17.344Z,7.00
2019-03-01T13:42:47.242Z,9.53
2019-03-01T13:45:18.020Z,7.17
2019-03-01T13:47:46.986Z,7.57
2019-03-01T13:50:16.888Z,10.30
2019-03-01T13:52:46.246Z,8.93
2019-03-01T13:55:18.519Z,9.70
2019-03-01T13:57:49.878Z,10.20
2019-03-01T14:00:17.845Z,12.50
2019-03-01T14:02:47.877Z,12.97
2019-03-01T14:05:18.264Z,13.43
2019-03-01T14:07:47.273Z,11.67
2019-03-01T14:10:18.189Z,12.03
2019-03-01T14:12:47.521Z,11.37
2019-03-01T14:15:17.149Z,12.87
2019-03-01T14:17:46.399Z,12.23
2019-03-01T14:20:20.353Z,13.47
2019-03-01T14:22:47.927Z,12.83
2019-03-01T14:25:18.108Z,9.93
2019-03-01T14:27:47.066Z,10.23
2019-03-01T14:30:17.860Z,11.83
2019-03-01T14:32:47.075Z,11.13
2019-03-01T14:35:16.154Z,11.73
2019-03-01T14:37:45.054Z,12.10
2019-03-01T14:40:14.758Z,11.70
2019-03-01T14:42:46.605Z,12.27
2019-03-01T14:45:17.046Z,12.20
2019-03-01T14:47:46.015Z,11.20
2019-03-01T14:50:16.359Z,11.57
2019-03-01T14:52:45.845Z,13.63
2019-03-01T14:55:26.951Z,12.10
2019-03-01T14:58:02.692Z,14.47
2019-03-01T15:00:38.632Z,18.23
2019-03-01T15:03:39.244Z,17.37
2019-03-01T15:06:09.282Z,18.13
2019-03-01T15:08:40.441Z,22.30
2019-03-01T15:11:18.838Z,18.80
2019-03-01T15:13:49.205Z,22.57
2019-03-01T15:16:18.168Z,20.90
2019-03-01T15:18:47.224Z,22.70
2019-03-01T15:21:16.434Z,23.20
2019-03-01T15:23:45.463Z,28.20
2019-03-01T15:26:14.373Z,22.93
2019-03-01T15:28:54.022Z,27.00
2019-03-01T15:31:18.722Z,28.30
2019-03-01T15:33:47.929Z,24.90
2019-03-01T15:36:17.807Z,24.43
2019-03-01T15:38:47.476Z,27.77
2019-03-01T15:41:16.382Z,26.27
2019-03-01T15:43:45.269Z,27.67
2019-03-01T15:46:15.260Z,27.67
2019-03-01T15:48:44.380Z,28.10
2019-03-01T15:51:13.349Z,26.80
2019-03-01T15:53:42.256Z,28.43
2019-03-01T15:56:11.286Z,28.97
2019-03-01T15:58:40.122Z,33.53
2019-03-01T16:01:11.996Z,32.33
2019-03-01T16:03:42.249Z,28.90
2019-03-01T16:06:17.246Z,30.27
2019-03-01T16:08:43.934Z,27.73
2019-03-01T16:11:12.666Z,31.17
2019-03-01T16:13:47.762Z,27.90
2019-03-01T16:16:14.457Z,27.60
2019-03-01T16:18:43.539Z,26.87
2019-03-01T16:21:12.541Z,27.37
2019-03-01T16:23:41.504Z,29.33
2019-03-01T16:26:10.800Z,27.27
2019-03-01T16:28:39.709Z,29.20
2019-03-01T16:31:08.726Z,28.93
2019-03-01T16:33:37.652Z,27.40
2019-03-01T16:36:12.781Z,27.23
2019-03-01T16:38:47.663Z,25.00
2019-03-01T16:41:12.704Z,26.37
2019-03-01T16:43:41.596Z,25.43
2019-03-01T16:46:10.440Z,25.10
2019-03-01T16:48:39.480Z,25.13
2019-03-01T16:51:10.136Z,23.57
2019-03-01T16:53:40.736Z,26.47
2019-03-01T16:56:09.381Z,26.00
2019-03-01T16:58:38.660Z,25.77
2019-03-01T17:01:29.861Z,26.00
2019-03-01T17:03:57.287Z,24.30
2019-03-01T17:06:26.160Z,24.53
2019-03-01T17:08:55.089Z,25.20
2019-03-01T17:11:24.024Z,26.33
2019-03-01T17:13:52.953Z,26.17
2019-03-01T17:16:23.742Z,27.67
2019-03-01T17:18:52.520Z,24.87
2019-03-01T17:21:21.501Z,24.60
2019-03-01T17:23:50.416Z,25.63
2019-03-01T17:26:19.508Z,24.10
2019-03-01T17:28:49.823Z,24.23
2019-03-01T17:31:19.219Z,23.00
2019-03-01T17:33:48.800Z,25.13
2019-03-01T17:36:19.031Z,23.27
2019-03-01T17:38:48.661Z,23.23
2019-03-01T17:41:17.540Z,23.13
2019-03-01T17:43:46.768Z,24.33
2019-03-01T17:46:15.708Z,23.93
2019-03-01T17:48:44.628Z,23.07
2019-03-01T17:51:13.652Z,25.67
2019-03-01T17:53:43.071Z,23.40
2019-03-01T17:56:13.246Z,26.10
2019-03-01T17:58:42.432Z,24.60
2019-03-01T18:01:11.427Z,22.43
2019-03-01T18:03:40.254Z,25.10
2019-03-01T18:06:09.197Z,25.93
2019-03-01T18:08:39.656Z,24.40
2019-03-01T18:11:09.525Z,23.33
2019-03-01T18:13:38.737Z,23.33
2019-03-01T18:16:07.708Z,23.77
2019-03-01T18:18:36.829Z,24.10
2019-03-01T18:21:05.737Z,24.00
2019-03-01T18:23:37.989Z,22.67
2019-03-01T18:26:05.360Z,24.00
2019-03-01T18:28:34.165Z,22.70
2019-03-01T18:31:03.099Z,23.47
2019-03-01T18:33:31.949Z,22.83
2019-03-01T18:36:00.812Z,23.40
2019-03-01T18:38:31.311Z,22.73
2019-03-01T18:41:01.424Z,22.37
2019-03-01T18:43:30.560Z,22.60
2019-03-01T18:45:59.660Z,23.37
2019-03-01T18:48:28.516Z,24.13
2019-03-01T18:50:57.513Z,23.10
2019-03-01T18:53:28.916Z,23.37
2019-03-01T18:55:56.955Z,22.20
2019-03-01T18:58:26.052Z,23.77
2019-03-01T19:00:55.071Z,23.27
2019-03-01T19:03:24.125Z,21.83
2019-03-01T19:05:53.063Z,23.50
2019-03-01T19:08:21.948Z,21.53
2019-03-01T19:10:54.340Z,23.00
2019-03-01T19:13:24.559Z,24.40
2019-03-01T19:15:54.537Z,23.37
2019-03-01T19:18:23.386Z,23.00
2019-03-01T19:20:52.403Z,20.90
2019-03-01T19:23:21.301Z,20.50
2019-03-01T19:25:50.192Z,22.37
2019-03-01T19:28:19.151Z,20.13
2019-03-01T19:30:49.029Z,23.07
2019-03-01T19:33:18.690Z,24.70
2019-03-01T19:35:47.647Z,33.80
2019-03-01T19:38:16.585Z,25.47
2019-03-01T19:40:46.955Z,23.03
2019-03-01T19:43:16.001Z,24.30
2019-03-01T19:45:44.902Z,23.03
2019-03-01T19:48:13.772Z,24.60
2019-03-01T19:50:43.580Z,30.70
2019-03-01T19:53:12.898Z,31.00
2019-03-01T19:55:43.960Z,30.17
2019-03-01T19:58:12.781Z,26.87
2019-03-01T20:00:42.644Z,26.63
2019-03-01T20:03:12.536Z,25.60
2019-03-01T20:05:41.421Z,22.53
2019-03-01T20:08:10.220Z,23.20
2019-03-01T20:10:39.116Z,24.00
2019-03-01T20:13:08.120Z,22.30
2019-03-01T20:15:37.120Z,21.47
2019-03-01T20:18:06.787Z,22.40
2019-03-01T20:20:36.815Z,22.00
2019-03-01T20:23:05.749Z,22.63
2019-03-01T20:25:34.685Z,21.37
2019-03-01T20:28:03.710Z,20.43
2019-03-01T20:30:32.991Z,21.47
2019-03-01T20:33:01.938Z,21.53
2019-03-01T20:35:30.913Z,21.57
2019-03-01T20:38:03.317Z,20.60
2019-03-01T20:40:30.599Z,19.90
2019-03-01T20:43:05.477Z,20.33
2019-03-01T20:45:31.457Z,20.50
2019-03-01T20:48:00.629Z,20.80
2019-03-01T20:50:29.628Z,19.73
2019-03-01T20:52:58.642Z,19.00
2019-03-01T20:55:27.638Z,19.40
2019-03-01T20:57:59.842Z,19.00
2019-03-01T21:00:27.723Z,19.20
2019-03-01T21:02:57.869Z,19.60
2019-03-01T21:05:28.863Z,21.40
2019-03-01T21:07:57.444Z,20.60
2019-03-01T21:10:26.976Z,19.97
2019-03-01T21:12:56.233Z,14.70
2019-03-01T21:15:25.503Z,19.37
2019-03-01T21:17:57.130Z,17.00
2019-03-01T21:20:25.132Z,14.97
2019-03-01T21:22:54.133Z,14.33
2019-03-01T21:25:23.032Z,13.57
2019-03-01T21:27:52.026Z,12.03
2019-03-01T21:30:25.689Z,13.33
2019-03-01T21:32:54.776Z,12.90
2019-03-01T21:35:23.770Z,13.73
2019-03-01T21:37:53.258Z,13.20
2019-03-01T21:40:22.280Z,14.27
2019-03-01T21:42:52.745Z,13.90
2019-03-01T21:45:22.867Z,14.17
2019-03-01T21:47:52.245Z,14.70
2019-03-01T21:50:21.411Z,14.07
2019-03-01T21:52:51.540Z,14.03
2019-03-01T21:55:20.932Z,12.63
2019-03-01T21:57:50.206Z,13.80
2019-03-01T22:00:21.415Z,13.83
2019-03-01T22:02:52.964Z,15.70
2019-03-01T22:05:23.072Z,15.10
2019-03-01T22:07:52.332Z,12.93
2019-03-01T22:10:21.332Z,12.87
2019-03-01T22:12:50.674Z,14.10
2019-03-01T22:15:25.363Z,13.83
2019-03-01T22:17:54.368Z,15.30
2019-03-01T22:20:23.514Z,13.33
2019-03-01T22:22:52.408Z,12.93
2019-03-01T22:25:21.625Z,13.20
2019-03-01T22:27:50.632Z,15.03
2019-03-01T22:30:23.978Z,14.57
2019-03-01T22:32:53.027Z,14.77
2019-03-01T22:35:22.008Z,13.83
2019-03-01T22:37:50.889Z,14.27
2019-03-01T22:40:23.921Z,15.10
2019-03-01T22:42:51.203Z,14.50
2019-03-01T22:45:20.244Z,14.37
2019-03-01T22:47:49.563Z,15.97
2019-03-01T22:50:18.368Z,14.17
2019-03-01T22:52:47.398Z,13.60
2019-03-01T22:55:16.410Z,13.70
2019-03-01T22:57:45.400Z,13.03
2019-03-01T23:01:03.142Z,14.10
2019-03-01T23:03:32.504Z,12.67
2019-03-01T23:06:01.828Z,13.97
2019-03-01T23:08:31.807Z,14.20
2019-03-01T23:11:01.472Z,15.67
2019-03-01T23:13:30.868Z,14.90
2019-03-01T23:16:00.231Z,14.30
2019-03-01T23:18:29.069Z,16.00
2019-03-01T23:21:01.006Z,15.33
2019-03-01T23:23:28.701Z,14.57
2019-03-01T23:25:57.512Z,14.73
2019-03-01T23:28:26.741Z,14.60
2019-03-01T23:30:55.649Z,16.17
2019-03-01T23:33:27.688Z,14.17
2019-03-01T23:35:55.190Z,14.73
2019-03-01T23:38:24.064Z,16.03
2019-03-01T23:40:53.013Z,14.97
2019-03-01T23:43:21.891Z,15.00
2019-03-01T23:45:53.807Z,16.63
2019-03-01T23:48:21.394Z,16.10
2019-03-01T23:50:50.384Z,16.07
2019-03-01T23:53:19.277Z,15.93
2019-03-01T23:55:51.017Z,16.23
2019-03-01T23:58:18.789Z,16.80
